Time;durP1;ratioP1;P1;durP2;ratioP2;P2;SDS_P1;SDS_P2;PMS_P1;PMS_P2;Temp;Humidity;BMP_temperature;BMP_pressure;BME280_temperature;BME280_humidity;BME280_pressure;Samples;Min_cycle;Max_cycle;Signal;HPM_P1;HPM_P2
2021/10/30 00:02:13;;;;;;;;;;;11.00;96.00;;;;;;5010744;28;20290;-62
2021/10/30 00:04:38;;;;;;;;;;;11.00;96.00;;;;;;4985295;28;20295;-61
2021/10/30 00:07:04;;;;;;;;;;;11.00;96.00;;;;;;4987618;28;19996;-62
2021/10/30 00:09:29;;;;;;;;;;;11.00;96.00;;;;;;5014254;28;19913;-62
2021/10/30 00:11:55;;;;;;;;;;;11.00;96.10;;;;;;5015117;28;19923;-61
2021/10/30 00:14:20;;;;;;;;;;;11.00;96.20;;;;;;5013291;28;19979;-60
2021/10/30 00:16:46;;;;;;;;;;;10.90;96.10;;;;;;5014146;28;19913;-61
2021/10/30 00:19:12;;;;;;;;;;;10.90;96.00;;;;;;5015550;28;19917;-63
2021/10/30 00:21:38;;;;;;;;;;;11.00;96.10;;;;;;5016522;28;20004;-63
2021/10/30 00:24:03;;;;;;;;;;;10.90;96.00;;;;;;5018165;28;20000;-61
2021/10/30 00:26:29;;;;;;;;;;;10.80;96.00;;;;;;5016346;28;20260;-61
2021/10/30 00:28:54;;;;;;;;;;;10.80;96.10;;;;;;5018033;28;19920;-63
2021/10/30 00:31:20;;;;;;;;;;;10.70;96.10;;;;;;5015990;28;19913;-62
2021/10/30 00:33:45;;;;;;;;;;;10.70;96.10;;;;;;5017794;28;20325;-60
2021/10/30 00:36:11;;;;;;;;;;;10.70;96.10;;;;;;5012707;28;19971;-61
2021/10/30 00:38:36;;;;;;;;;;;10.70;96.20;;;;;;5018878;28;19913;-62
2021/10/30 00:41:03;;;;;;;;;;;10.70;96.00;;;;;;5017964;28;19929;-60
2021/10/30 00:43:29;;;;;;;;;;;10.80;96.00;;;;;;4999547;28;19917;-62
2021/10/30 00:45:54;;;;;;;;;;;10.80;95.90;;;;;;5012068;28;19917;-61
2021/10/30 00:48:20;;;;;;;;;;;10.70;95.90;;;;;;5016475;28;19917;-61
2021/10/30 00:50:45;;;;;;;;;;;10.70;95.90;;;;;;5019198;28;20005;-61
2021/10/30 00:53:11;;;;;;;;;;;10.70;95.90;;;;;;5017249;28;20078;-61
2021/10/30 00:55:39;;;;;;;;;;;10.70;95.90;;;;;;5013630;28;19920;-63
2021/10/30 00:58:04;;;;;;;;;;;10.70;96.00;;;;;;5016586;28;20281;-61
2021/10/30 01:00:30;;;;;;;;;;;10.70;96.00;;;;;;5014997;28;19924;-60
2021/10/30 01:02:56;;;;;;;;;;;10.70;95.90;;;;;;5017510;28;19913;-62
2021/10/30 01:05:21;;;;;;;;;;;10.70;95.90;;;;;;5017903;28;19913;-61
2021/10/30 01:07:47;;;;;;;;;;;10.70;95.90;;;;;;5015982;28;19913;-61
2021/10/30 01:10:12;;;;;;;;;;;10.70;95.90;;;;;;5018347;28;20027;-61
2021/10/30 01:12:38;;;;;;;;;;;10.70;95.90;;;;;;5014374;28;20285;-61
2021/10/30 01:15:05;;;;;;;;;;;10.70;95.90;;;;;;5017969;28;19925;-62
2021/10/30 01:17:31;;;;;;;;;;;10.70;95.90;;;;;;5015443;28;19921;-63
2021/10/30 01:19:57;;;;;;;;;;;10.60;95.80;;;;;;5005799;28;19914;-62
2021/10/30 01:22:23;;;;;;;;;;;10.60;95.80;;;;;;5006394;28;19967;-61
2021/10/30 01:24:49;;;;;;;;;;;10.70;95.90;;;;;;5010260;28;19928;-62
2021/10/30 01:27:16;;;;;;;;;;;10.70;95.80;;;;;;5005997;28;20367;-62
2021/10/30 01:29:42;;;;;;;;;;;10.70;95.80;;;;;;5012015;28;19914;-61
2021/10/30 01:32:07;;;;;;;;;;;10.70;95.80;;;;;;5010996;28;19972;-60
2021/10/30 01:35:01;;;;;;;;;;;10.70;95.80;;;;;;5018617;28;19999;-62
2021/10/30 01:37:26;;;;;;;;;;;10.70;95.80;;;;;;4993666;28;19929;-62
2021/10/30 01:39:52;;;;;;;;;;;10.80;95.70;;;;;;5010353;28;19917;-61
2021/10/30 01:42:17;;;;;;;;;;;10.80;95.70;;;;;;5009986;28;20025;-62
2021/10/30 01:44:43;;;;;;;;;;;10.80;95.80;;;;;;5009622;28;19922;-61
2021/10/30 01:47:08;;;;;;;;;;;10.80;95.70;;;;;;5010542;28;20003;-61
2021/10/30 01:49:33;;;;;;;;;;;10.80;95.70;;;;;;5010259;28;19924;-61
2021/10/30 01:51:59;;;;;;;;;;;10.80;95.80;;;;;;5007321;28;20495;-62
2021/10/30 01:54:25;;;;;;;;;;;10.80;95.80;;;;;;5007965;28;19995;-61
2021/10/30 01:56:51;;;;;;;;;;;10.80;95.70;;;;;;5009656;28;20793;-61
2021/10/30 01:59:16;;;;;;;;;;;10.80;95.80;;;;;;5011316;28;20016;-61
2021/10/30 02:01:42;;;;;;;;;;;10.80;95.70;;;;;;5005569;28;19917;-63
2021/10/30 02:04:08;;;;;;;;;;;10.80;95.70;;;;;;5010195;28;19918;-62
2021/10/30 02:06:33;;;;;;;;;;;10.80;95.70;;;;;;5016463;28;20329;-62
2021/10/30 02:08:59;;;;;;;;;;;10.80;95.80;;;;;;5007317;28;20374;-63
2021/10/30 02:11:24;;;;;;;;;;;10.80;95.60;;;;;;5007299;28;20015;-61
2021/10/30 02:13:49;;;;;;;;;;;10.80;95.60;;;;;;5011739;28;20354;-62
2021/10/30 02:16:15;;;;;;;;;;;10.80;95.60;;;;;;5013411;28;19956;-62
2021/10/30 02:18:41;;;;;;;;;;;10.80;95.70;;;;;;5014900;28;20537;-61
2021/10/30 02:21:06;;;;;;;;;;;10.70;95.60;;;;;;4998048;28;19913;-61
2021/10/30 02:23:32;;;;;;;;;;;10.70;95.70;;;;;;5007714;28;19924;-61
2021/10/30 02:25:57;;;;;;;;;;;10.70;95.60;;;;;;5006837;28;19964;-62
2021/10/30 02:28:23;;;;;;;;;;;10.70;95.70;;;;;;5007158;28;20295;-62
2021/10/30 02:30:48;;;;;;;;;;;10.70;95.70;;;;;;4988185;28;20059;-62
2021/10/30 02:33:14;;;;;;;;;;;10.70;95.70;;;;;;5009573;28;19933;-62
2021/10/30 02:35:39;;;;;;;;;;;10.70;95.70;;;;;;5007305;28;19921;-62
2021/10/30 02:38:05;;;;;;;;;;;10.70;95.70;;;;;;5012088;28;20384;-62
2021/10/30 02:40:30;;;;;;;;;;;10.70;95.80;;;;;;5006209;28;19921;-62
2021/10/30 02:42:56;;;;;;;;;;;10.60;95.80;;;;;;5011803;28;20267;-62
2021/10/30 02:45:21;;;;;;;;;;;10.60;95.80;;;;;;5008653;28;19920;-62
2021/10/30 02:47:47;;;;;;;;;;;10.60;95.80;;;;;;5012308;28;19913;-62
2021/10/30 02:50:12;;;;;;;;;;;10.70;95.80;;;;;;5008757;28;19937;-61
2021/10/30 02:52:38;;;;;;;;;;;10.70;95.80;;;;;;5006503;28;20457;-62
2021/10/30 02:55:04;;;;;;;;;;;10.60;95.80;;;;;;5010005;28;20269;-62
2021/10/30 02:57:30;;;;;;;;;;;10.60;95.90;;;;;;5011135;28;20003;-61
2021/10/30 02:59:56;;;;;;;;;;;10.60;95.80;;;;;;5010715;28;19913;-62
2021/10/30 03:02:21;;;;;;;;;;;10.70;95.90;;;;;;5015865;28;20008;-62
2021/10/30 03:04:46;;;;;;;;;;;10.70;95.80;;;;;;5014386;28;19921;-62
2021/10/30 03:07:12;;;;;;;;;;;10.70;95.80;;;;;;5014349;28;19913;-61
2021/10/30 03:09:37;;;;;;;;;;;10.70;95.80;;;;;;5007444;28;19913;-61
2021/10/30 03:12:03;;;;;;;;;;;10.60;95.80;;;;;;5014618;28;19917;-62
2021/10/30 03:14:29;;;;;;;;;;;10.70;95.90;;;;;;5002389;28;19926;-62
2021/10/30 03:16:54;;;;;;;;;;;10.70;95.90;;;;;;5003949;28;20286;-62
2021/10/30 03:19:19;;;;;;;;;;;10.70;95.90;;;;;;5006979;28;19925;-62
2021/10/30 03:21:45;;;;;;;;;;;10.70;95.80;;;;;;5008184;28;19914;-62
2021/10/30 03:24:10;;;;;;;;;;;10.70;95.90;;;;;;4993691;28;20106;-62
2021/10/30 03:26:36;;;;;;;;;;;10.70;95.90;;;;;;5013145;28;19955;-61
2021/10/30 03:29:02;;;;;;;;;;;10.60;95.90;;;;;;5012909;28;20044;-62
2021/10/30 03:31:27;;;;;;;;;;;10.60;95.90;;;;;;5008692;28;20378;-62
2021/10/30 03:33:53;;;;;;;;;;;10.60;95.90;;;;;;5005827;28;20008;-62
2021/10/30 03:36:18;;;;;;;;;;;10.50;96.00;;;;;;5011108;28;19920;-62
2021/10/30 03:38:44;;;;;;;;;;;10.50;96.00;;;;;;5015467;28;19996;-62
2021/10/30 03:41:09;;;;;;;;;;;10.50;96.00;;;;;;5011783;28;19956;-62
2021/10/30 03:43:35;;;;;;;;;;;10.40;96.00;;;;;;5008238;28;19920;-62
2021/10/30 03:46:01;;;;;;;;;;;10.40;96.10;;;;;;5008094;28;19968;-62
2021/10/30 03:48:27;;;;;;;;;;;10.40;96.10;;;;;;5007038;28;19913;-61
2021/10/30 03:50:52;;;;;;;;;;;10.40;96.20;;;;;;5011097;28;19940;-61
2021/10/30 03:53:19;;;;;;;;;;;10.30;96.20;;;;;;5010015;28;20033;-61
2021/10/30 03:55:45;;;;;;;;;;;10.30;96.20;;;;;;4980335;28;20290;-61
2021/10/30 03:58:11;;;;;;;;;;;10.20;96.20;;;;;;5011049;28;19909;-61
2021/10/30 04:00:37;;;;;;;;;;;10.20;96.20;;;;;;5010498;28;20362;-61
2021/10/30 04:03:03;;;;;;;;;;;10.20;96.40;;;;;;5016148;28;19916;-61
2021/10/30 04:05:28;;;;;;;;;;;10.10;96.30;;;;;;5009824;28;19921;-61
2021/10/30 04:07:54;;;;;;;;;;;10.10;96.30;;;;;;5020696;28;19970;-61
2021/10/30 04:10:19;;;;;;;;;;;10.00;96.40;;;;;;5013150;28;19917;-61
2021/10/30 04:12:45;;;;;;;;;;;10.00;96.40;;;;;;5014320;28;19922;-61
2021/10/30 04:15:10;;;;;;;;;;;10.10;96.40;;;;;;5013364;28;20028;-61
2021/10/30 04:17:35;;;;;;;;;;;10.10;96.40;;;;;;5012289;28;19917;-61
2021/10/30 04:20:01;;;;;;;;;;;10.00;96.30;;;;;;4996682;28;19917;-62
2021/10/30 04:22:26;;;;;;;;;;;10.10;96.30;;;;;;5009409;28;19983;-62
2021/10/30 04:24:53;;;;;;;;;;;10.10;96.30;;;;;;5023017;28;19924;-61
2021/10/30 04:27:18;;;;;;;;;;;10.10;96.20;;;;;;5010455;28;19975;-60
2021/10/30 04:29:44;;;;;;;;;;;10.10;96.20;;;;;;4990916;28;19918;-61
2021/10/30 04:32:11;;;;;;;;;;;10.10;96.20;;;;;;5012396;28;19913;-62
2021/10/30 04:34:45;;;;;;;;;;;10.10;96.10;;;;;;5008599;28;19922;-62
2021/10/30 04:37:17;;;;;;;;;;;10.20;96.10;;;;;;5015314;28;19925;-62
2021/10/30 04:39:43;;;;;;;;;;;10.20;96.00;;;;;;5009915;28;19984;-62
2021/10/30 04:42:09;;;;;;;;;;;10.20;96.00;;;;;;5012388;28;20019;-61
2021/10/30 04:44:35;;;;;;;;;;;10.10;96.00;;;;;;5007079;28;20369;-62
2021/10/30 04:47:00;;;;;;;;;;;10.10;96.00;;;;;;5005899;28;20292;-62
2021/10/30 04:49:25;;;;;;;;;;;10.10;96.00;;;;;;5007213;28;19914;-62
2021/10/30 04:51:51;;;;;;;;;;;10.00;96.10;;;;;;5010492;28;19933;-61
2021/10/30 04:54:16;;;;;;;;;;;10.00;96.10;;;;;;5005423;28;19924;-61
2021/10/30 04:56:42;;;;;;;;;;;10.00;96.20;;;;;;4998945;28;19920;-62
2021/10/30 04:59:07;;;;;;;;;;;9.90;96.20;;;;;;5005569;28;19917;-62
2021/10/30 05:01:33;;;;;;;;;;;9.90;96.20;;;;;;5005937;28;19920;-62
2021/10/30 05:03:58;;;;;;;;;;;9.90;96.20;;;;;;5006832;28;19917;-61
2021/10/30 05:06:24;;;;;;;;;;;9.80;96.30;;;;;;5003921;28;19917;-61
2021/10/30 05:08:49;;;;;;;;;;;9.80;96.30;;;;;;5002466;28;19969;-61
2021/10/30 05:11:15;;;;;;;;;;;9.80;96.40;;;;;;5010394;28;19913;-62
2021/10/30 05:13:40;;;;;;;;;;;9.80;96.40;;;;;;5003839;28;19928;-62
2021/10/30 05:16:06;;;;;;;;;;;9.80;96.50;;;;;;5003988;28;19913;-62
2021/10/30 05:18:31;;;;;;;;;;;9.70;96.40;;;;;;5004914;28;19932;-61
2021/10/30 05:20:57;;;;;;;;;;;9.80;96.50;;;;;;5005471;28;19924;-61
2021/10/30 05:23:23;;;;;;;;;;;9.70;96.40;;;;;;5003612;28;19979;-62
2021/10/30 05:25:48;;;;;;;;;;;9.70;96.40;;;;;;5006159;28;19943;-61
2021/10/30 05:28:20;;;;;;;;;;;9.70;96.50;;;;;;5004341;28;19921;-62
2021/10/30 05:30:47;;;;;;;;;;;9.70;96.50;;;;;;5005595;28;20370;-61
2021/10/30 05:33:12;;;;;;;;;;;9.70;96.40;;;;;;4993123;28;20021;-61
2021/10/30 05:35:38;;;;;;;;;;;9.80;96.50;;;;;;5006540;28;19952;-62
2021/10/30 05:38:03;;;;;;;;;;;9.80;96.40;;;;;;5015185;28;20018;-62
2021/10/30 05:40:29;;;;;;;;;;;9.80;96.40;;;;;;5007204;28;19945;-62
2021/10/30 05:42:54;;;;;;;;;;;9.80;96.30;;;;;;5003779;28;19968;-62
2021/10/30 05:45:20;;;;;;;;;;;9.90;96.30;;;;;;5001531;28;19968;-61
2021/10/30 05:47:46;;;;;;;;;;;9.90;96.20;;;;;;5004338;28;19923;-61
2021/10/30 05:50:12;;;;;;;;;;;10.00;96.20;;;;;;5004018;28;19917;-61
2021/10/30 05:52:37;;;;;;;;;;;10.00;96.10;;;;;;5002538;28;19921;-62
2021/10/30 05:55:03;;;;;;;;;;;10.00;96.10;;;;;;5008071;28;19941;-61
2021/10/30 05:57:28;;;;;;;;;;;10.00;96.10;;;;;;5004671;28;19917;-61
2021/10/30 05:59:54;;;;;;;;;;;10.00;96.00;;;;;;5005007;28;19921;-61
2021/10/30 06:02:19;;;;;;;;;;;10.00;95.90;;;;;;5003041;28;19933;-61
2021/10/30 06:04:45;;;;;;;;;;;10.10;95.90;;;;;;5005848;28;19921;-62
2021/10/30 06:07:11;;;;;;;;;;;10.10;95.80;;;;;;5008424;28;20103;-61
2021/10/30 06:09:36;;;;;;;;;;;10.10;95.90;;;;;;5004174;28;20431;-61
2021/10/30 06:12:02;;;;;;;;;;;10.10;95.50;;;;;;5005272;28;19917;-61
2021/10/30 06:14:27;;;;;;;;;;;10.20;95.40;;;;;;5007949;28;19917;-62
2021/10/30 06:16:53;;;;;;;;;;;10.20;95.40;;;;;;5004812;28;19917;-61
2021/10/30 06:19:19;;;;;;;;;;;10.30;95.20;;;;;;5003774;28;19964;-61
2021/10/30 06:21:45;;;;;;;;;;;10.40;95.10;;;;;;5010978;28;20008;-62
2021/10/30 06:24:10;;;;;;;;;;;10.40;95.10;;;;;;5000395;28;19914;-62
2021/10/30 06:26:36;;;;;;;;;;;10.40;94.80;;;;;;5002169;28;20328;-62
2021/10/30 06:29:02;;;;;;;;;;;10.50;94.80;;;;;;5003853;28;20436;-62
2021/10/30 06:31:27;;;;;;;;;;;10.50;94.80;;;;;;5003171;28;19918;-62
2021/10/30 06:33:53;;;;;;;;;;;10.60;94.80;;;;;;5005020;28;19928;-61
2021/10/30 06:36:20;;;;;;;;;;;10.60;94.70;;;;;;5003834;28;21274;-62
2021/10/30 06:38:45;;;;;;;;;;;10.60;94.70;;;;;;5003825;28;19927;-62
2021/10/30 06:41:14;;;;;;;;;;;10.70;94.60;;;;;;5002907;28;20246;-63
2021/10/30 06:43:40;;;;;;;;;;;10.70;94.60;;;;;;5009256;28;19917;-62
2021/10/30 06:46:05;;;;;;;;;;;10.70;94.60;;;;;;5000966;28;19929;-61
2021/10/30 06:48:31;;;;;;;;;;;10.70;94.50;;;;;;5000952;28;19924;-62
2021/10/30 06:50:56;;;;;;;;;;;10.80;94.50;;;;;;5007599;28;19920;-62
2021/10/30 06:53:22;;;;;;;;;;;10.80;94.50;;;;;;5007345;28;19941;-62
2021/10/30 06:55:48;;;;;;;;;;;10.80;94.60;;;;;;5008029;28;19929;-62
2021/10/30 06:58:14;;;;;;;;;;;10.80;94.60;;;;;;5005218;28;19988;-62
2021/10/30 07:00:40;;;;;;;;;;;10.80;94.60;;;;;;5004313;28;19913;-62
2021/10/30 07:03:06;;;;;;;;;;;10.90;94.70;;;;;;5008312;28;20332;-62
2021/10/30 07:05:32;;;;;;;;;;;10.90;94.50;;;;;;5010162;28;19918;-62
2021/10/30 07:07:57;;;;;;;;;;;11.00;94.70;;;;;;5010283;28;19913;-62
2021/10/30 07:10:23;;;;;;;;;;;11.00;94.50;;;;;;4971585;28;19917;-63
2021/10/30 07:12:48;;;;;;;;;;;11.10;94.60;;;;;;5008214;28;19924;-61
2021/10/30 07:15:14;;;;;;;;;;;11.20;94.50;;;;;;5005164;28;19922;-62
2021/10/30 07:17:40;;;;;;;;;;;11.20;94.40;;;;;;5032952;22;19960;-75
2021/10/30 07:20:06;;;;;;;;;;;11.30;94.40;;;;;;5045255;28;19919;-75
2021/10/30 07:22:38;;;;;;;;;;;11.40;94.40;;;;;;5044068;28;20245;-66
2021/10/30 07:25:04;;;;;;;;;;;11.50;94.90;;;;;;5044270;28;19921;-66
2021/10/30 07:27:29;;;;;;;;;;;11.90;94.50;;;;;;5043384;28;20311;-69
2021/10/30 07:29:55;;;;;;;;;;;12.20;93.90;;;;;;5031663;28;20007;-73
2021/10/30 07:32:20;;;;;;;;;;;12.40;93.30;;;;;;5038220;28;19939;-81
2021/10/30 07:34:46;;;;;;;;;;;12.40;92.90;;;;;;5011873;28;20078;-81
2021/10/30 07:37:11;;;;;;;;;;;12.40;92.80;;;;;;5038520;28;19913;-81
2021/10/30 07:39:37;;;;;;;;;;;12.50;92.20;;;;;;5038347;28;19913;-81
2021/10/30 07:42:03;;;;;;;;;;;12.60;92.40;;;;;;5040291;28;19920;-81
2021/10/30 07:44:28;;;;;;;;;;;12.60;91.80;;;;;;5039555;28;19913;-81
2021/10/30 07:46:54;;;;;;;;;;;12.60;91.20;;;;;;5039644;28;20445;-81
2021/10/30 07:49:19;;;;;;;;;;;12.70;91.00;;;;;;5007441;28;20004;-81
2021/10/30 07:51:45;;;;;;;;;;;12.70;90.30;;;;;;5040931;28;19955;-81
2021/10/30 07:54:10;;;;;;;;;;;12.80;90.30;;;;;;5041057;28;19928;-82
2021/10/30 07:56:36;;;;;;;;;;;12.80;88.90;;;;;;5040064;28;19916;-82
2021/10/30 07:59:01;;;;;;;;;;;12.90;89.00;;;;;;5022590;28;19924;-81
2021/10/30 08:01:27;;;;;;;;;;;12.80;88.90;;;;;;5040504;28;20300;-81
2021/10/30 08:03:52;;;;;;;;;;;12.90;89.30;;;;;;5044526;28;20399;-81
2021/10/30 08:06:17;;;;;;;;;;;12.80;87.80;;;;;;5045286;28;19912;-81
2021/10/30 08:08:43;;;;;;;;;;;12.80;88.80;;;;;;5043948;28;19909;-81
2021/10/30 08:11:08;;;;;;;;;;;12.80;89.00;;;;;;5041514;28;19913;-82
2021/10/30 08:13:34;;;;;;;;;;;12.70;89.60;;;;;;5041298;28;19913;-82
2021/10/30 08:15:59;;;;;;;;;;;12.60;89.90;;;;;;5040928;28;19942;-81
2021/10/30 08:18:25;;;;;;;;;;;12.60;90.10;;;;;;5041460;28;19917;-82
2021/10/30 08:20:51;;;;;;;;;;;12.50;90.00;;;;;;5042607;28;19924;-81
2021/10/30 08:23:16;;;;;;;;;;;12.50;90.20;;;;;;5036288;28;20387;-82
2021/10/30 08:25:41;;;;;;;;;;;12.50;90.20;;;;;;5038877;28;19913;-82
2021/10/30 08:28:07;;;;;;;;;;;12.60;90.40;;;;;;5043986;28;19948;-82
2021/10/30 08:30:32;;;;;;;;;;;12.60;90.10;;;;;;5044832;28;20455;-81
2021/10/30 08:32:58;;;;;;;;;;;12.70;90.30;;;;;;5044231;28;19909;-81
2021/10/30 08:35:23;;;;;;;;;;;12.70;90.00;;;;;;5039957;28;19917;-81
2021/10/30 08:37:49;;;;;;;;;;;12.80;90.10;;;;;;5044434;28;20349;-81
2021/10/30 08:40:17;;;;;;;;;;;12.90;90.00;;;;;;5039123;28;19956;-81
2021/10/30 08:42:47;;;;;;;;;;;13.00;89.40;;;;;;5042527;28;19916;-81
2021/10/30 08:45:12;;;;;;;;;;;13.10;90.00;;;;;;5037512;28;21351;-81
2021/10/30 08:47:38;;;;;;;;;;;13.10;89.40;;;;;;5042038;28;19931;-81
2021/10/30 08:50:04;;;;;;;;;;;13.20;88.80;;;;;;5021844;28;19951;-81
2021/10/30 08:52:29;;;;;;;;;;;13.30;89.30;;;;;;5040040;28;19909;-81
2021/10/30 08:54:55;;;;;;;;;;;13.40;88.70;;;;;;5042264;28;19913;-82
2021/10/30 08:57:20;;;;;;;;;;;13.40;87.30;;;;;;5027076;28;19931;-81
2021/10/30 08:59:46;;;;;;;;;;;13.50;88.10;;;;;;5042011;28;20327;-81
2021/10/30 09:02:29;;;;;;;;;;;13.50;87.80;;;;;;5023093;28;19964;-81
2021/10/30 09:05:15;;;;;;;;;;;13.60;88.50;;;;;;5039883;28;20007;-82
2021/10/30 09:07:40;;;;;;;;;;;13.60;87.90;;;;;;5039018;28;20323;-81
2021/10/30 09:10:14;;;;;;;;;;;13.70;87.00;;;;;;5022378;28;19916;-84
2021/10/30 09:12:47;;;;;;;;;;;13.80;86.90;;;;;;5041337;28;20288;-81
2021/10/30 09:15:12;;;;;;;;;;;13.90;87.20;;;;;;5034814;28;19932;-82
2021/10/30 09:17:38;;;;;;;;;;;13.90;86.40;;;;;;5043000;28;20329;-81
2021/10/30 09:20:06;;;;;;;;;;;14.00;86.20;;;;;;5042638;28;20005;-81
2021/10/30 09:22:31;;;;;;;;;;;14.00;86.60;;;;;;5038219;28;20007;-81
2021/10/30 09:24:58;;;;;;;;;;;14.00;86.30;;;;;;5041468;28;19974;-81
2021/10/30 09:27:41;;;;;;;;;;;14.10;86.90;;;;;;5046811;28;19916;-81
2021/10/30 09:30:07;;;;;;;;;;;14.20;85.90;;;;;;5032155;28;19944;-80
2021/10/30 09:32:33;;;;;;;;;;;14.20;86.20;;;;;;5036895;28;19967;-81
2021/10/30 09:34:58;;;;;;;;;;;14.30;86.30;;;;;;5039599;28;19913;-80
2021/10/30 09:37:24;;;;;;;;;;;14.30;85.10;;;;;;5045125;28;20248;-81
2021/10/30 09:40:08;;;;;;;;;;;14.30;84.70;;;;;;5037362;28;20348;-81
2021/10/30 09:42:34;;;;;;;;;;;14.30;85.10;;;;;;5033616;28;19961;-81
2021/10/30 09:45:06;;;;;;;;;;;14.30;85.20;;;;;;5033987;28;19955;-80
2021/10/30 09:47:32;;;;;;;;;;;14.40;84.30;;;;;;5028694;28;20396;-80
2021/10/30 09:49:57;;;;;;;;;;;14.40;84.40;;;;;;5039834;28;20031;-80
2021/10/30 09:52:26;;;;;;;;;;;14.30;83.70;;;;;;5036596;28;20283;-81
2021/10/30 09:54:52;;;;;;;;;;;14.40;83.90;;;;;;5014866;28;19921;-81
2021/10/30 09:57:28;;;;;;;;;;;14.30;84.60;;;;;;5037791;28;20399;-80
2021/10/30 09:59:54;;;;;;;;;;;14.30;84.40;;;;;;5040020;28;19909;-80
2021/10/30 10:02:22;;;;;;;;;;;14.30;84.50;;;;;;5042644;28;19999;-80
2021/10/30 10:04:48;;;;;;;;;;;14.30;83.80;;;;;;5039777;28;19986;-81
2021/10/30 10:07:15;;;;;;;;;;;14.30;83.30;;;;;;5037771;28;20257;-81
2021/10/30 10:09:40;;;;;;;;;;;14.20;83.30;;;;;;5029946;28;19913;-81
2021/10/30 10:12:07;;;;;;;;;;;14.20;82.20;;;;;;5040317;28;19913;-81
2021/10/30 10:14:34;;;;;;;;;;;14.20;82.60;;;;;;5016045;28;19921;-81
2021/10/30 10:16:59;;;;;;;;;;;14.10;83.10;;;;;;5032506;28;19963;-81
2021/10/30 10:19:25;;;;;;;;;;;14.10;83.00;;;;;;5042361;28;19913;-80
2021/10/30 10:21:53;;;;;;;;;;;14.10;83.30;;;;;;5043563;28;19967;-81
2021/10/30 10:24:19;;;;;;;;;;;14.10;83.80;;;;;;5038003;28;19960;-81
2021/10/30 10:26:45;;;;;;;;;;;14.10;83.00;;;;;;5035846;28;19928;-81
2021/10/30 10:29:10;;;;;;;;;;;14.10;83.10;;;;;;5041805;28;20303;-80
2021/10/30 10:31:46;;;;;;;;;;;14.10;83.50;;;;;;5037188;28;19909;-81
2021/10/30 10:34:13;;;;;;;;;;;14.10;83.50;;;;;;5038214;28;19924;-81
2021/10/30 10:36:40;;;;;;;;;;;14.10;83.80;;;;;;5022319;28;19996;-81
2021/10/30 10:39:16;;;;;;;;;;;14.20;84.10;;;;;;5039161;28;19917;-81
2021/10/30 10:41:46;;;;;;;;;;;14.20;83.80;;;;;;5043307;28;19913;-81
2021/10/30 10:44:12;;;;;;;;;;;14.20;83.90;;;;;;5042983;28;20015;-82
2021/10/30 10:46:42;;;;;;;;;;;14.20;83.80;;;;;;5036765;28;20510;-81
2021/10/30 10:49:18;;;;;;;;;;;14.20;83.70;;;;;;5033493;28;19970;-81
2021/10/30 10:51:47;;;;;;;;;;;14.30;83.90;;;;;;5040238;28;19952;-81
2021/10/30 10:54:14;;;;;;;;;;;14.30;83.90;;;;;;5036089;28;19936;-81
2021/10/30 10:56:56;;;;;;;;;;;14.40;83.60;;;;;;5033090;28;20384;-81
2021/10/30 10:59:38;;;;;;;;;;;14.40;82.60;;;;;;5033428;28;19920;-81
2021/10/30 11:02:17;;;;;;;;;;;14.40;82.60;;;;;;5041806;28;19912;-82
2021/10/30 11:05:02;;;;;;;;;;;14.40;80.90;;;;;;5013427;28;19917;-81
2021/10/30 11:07:28;;;;;;;;;;;14.40;81.00;;;;;;5044807;28;19942;-81
2021/10/30 11:09:54;;;;;;;;;;;14.40;81.60;;;;;;5035046;28;19909;-81
2021/10/30 11:12:23;;;;;;;;;;;14.40;81.70;;;;;;5036744;28;19909;-81
2021/10/30 11:15:11;;;;;;;;;;;14.50;79.10;;;;;;5034799;28;20059;-82
2021/10/30 11:17:56;;;;;;;;;;;14.50;78.30;;;;;;5027815;28;20000;-81
2021/10/30 11:20:33;;;;;;;;;;;14.60;78.20;;;;;;5042266;28;21213;-80
2021/10/30 11:23:00;;;;;;;;;;;14.60;77.60;;;;;;5039617;28;19909;-81
2021/10/30 11:25:26;;;;;;;;;;;14.60;77.20;;;;;;5047784;28;19920;-81
2021/10/30 11:27:53;;;;;;;;;;;14.70;77.50;;;;;;5045686;28;20011;-81
2021/10/30 11:30:31;;;;;;;;;;;14.70;77.20;;;;;;5039489;28;19935;-81
2021/10/30 11:33:15;;;;;;;;;;;14.70;76.90;;;;;;5033497;28;19938;-81
2021/10/30 11:35:54;;;;;;;;;;;14.70;78.00;;;;;;5042925;28;19917;-81
2021/10/30 11:38:20;;;;;;;;;;;14.70;76.70;;;;;;5026901;28;19909;-81
2021/10/30 11:40:58;;;;;;;;;;;14.70;77.30;;;;;;5034204;28;19916;-81
2021/10/30 11:43:24;;;;;;;;;;;14.70;76.80;;;;;;5038089;28;19913;-78
2021/10/30 11:45:50;;;;;;;;;;;14.70;76.50;;;;;;5037234;28;19913;-82
2021/10/30 11:48:16;;;;;;;;;;;14.70;77.30;;;;;;5037466;28;20008;-81
2021/10/30 11:50:52;;;;;;;;;;;14.70;77.30;;;;;;5022512;28;20118;-81
2021/10/30 11:53:18;;;;;;;;;;;14.70;78.10;;;;;;5034980;28;20236;-80
2021/10/30 11:55:52;;;;;;;;;;;14.70;79.00;;;;;;5020357;28;19913;-78
2021/10/30 11:58:36;;;;;;;;;;;14.60;79.20;;;;;;5037327;28;19913;-78
2021/10/30 12:01:16;;;;;;;;;;;14.60;80.40;;;;;;5038393;28;20383;-78
2021/10/30 12:03:41;;;;;;;;;;;14.60;80.10;;;;;;5034757;28;19925;-78
2021/10/30 12:06:07;;;;;;;;;;;14.50;80.40;;;;;;5027554;28;19927;-78
2021/10/30 12:08:36;;;;;;;;;;;14.50;81.30;;;;;;5036391;28;19919;-79
2021/10/30 12:11:04;;;;;;;;;;;14.40;82.00;;;;;;5038791;28;19979;-79
2021/10/30 12:13:31;;;;;;;;;;;14.40;82.70;;;;;;5020259;28;19921;-77
2021/10/30 12:15:56;;;;;;;;;;;14.30;83.90;;;;;;5019481;28;19913;-80
2021/10/30 12:18:22;;;;;;;;;;;14.30;84.20;;;;;;5037120;28;20354;-80
2021/10/30 12:20:47;;;;;;;;;;;14.20;84.60;;;;;;5041355;28;19909;-80
2021/10/30 12:23:13;;;;;;;;;;;14.20;84.60;;;;;;5041670;28;19913;-80
2021/10/30 12:25:39;;;;;;;;;;;14.20;85.30;;;;;;5037850;28;19920;-80
2021/10/30 12:28:04;;;;;;;;;;;14.10;85.40;;;;;;5033634;28;19936;-79
2021/10/30 12:30:32;;;;;;;;;;;14.00;86.10;;;;;;5042312;28;19908;-80
2021/10/30 12:33:09;;;;;;;;;;;14.00;86.40;;;;;;5019702;28;19967;-78
2021/10/30 12:35:37;;;;;;;;;;;13.90;86.80;;;;;;5037860;28;19917;-79
2021/10/30 12:38:09;;;;;;;;;;;13.90;86.70;;;;;;5035318;28;19928;-79
2021/10/30 12:40:35;;;;;;;;;;;13.80;87.70;;;;;;5037476;28;19924;-79
2021/10/30 12:43:02;;;;;;;;;;;13.90;88.10;;;;;;5039500;28;19931;-78
2021/10/30 12:45:57;;;;;;;;;;;13.80;88.30;;;;;;5042220;28;19913;-79
2021/10/30 12:48:23;;;;;;;;;;;13.90;88.80;;;;;;5027004;28;19924;-81
2021/10/30 12:50:53;;;;;;;;;;;13.90;89.10;;;;;;5036783;28;19910;-79
2021/10/30 12:53:24;;;;;;;;;;;13.80;89.10;;;;;;5021073;28;20241;-79
2021/10/30 12:56:00;;;;;;;;;;;13.90;89.20;;;;;;5041447;28;21236;-78
2021/10/30 12:58:44;;;;;;;;;;;13.80;89.30;;;;;;5038965;28;20237;-77
2021/10/30 13:01:16;;;;;;;;;;;13.80;89.50;;;;;;5048806;28;19916;-78
2021/10/30 13:03:42;;;;;;;;;;;13.80;90.00;;;;;;5045366;28;19917;-78
2021/10/30 13:06:08;;;;;;;;;;;13.80;90.20;;;;;;5031395;28;19913;-77
2021/10/30 13:08:44;;;;;;;;;;;13.80;90.20;;;;;;5013286;28;19917;-78
2021/10/30 13:11:09;;;;;;;;;;;13.80;90.20;;;;;;5034321;28;20055;-79
2021/10/30 13:13:34;;;;;;;;;;;13.80;90.30;;;;;;5019076;28;20044;-75
2021/10/30 13:16:00;;;;;;;;;;;13.90;90.50;;;;;;5035314;28;19917;-77
2021/10/30 13:18:25;;;;;;;;;;;13.90;90.50;;;;;;5036082;28;19921;-77
2021/10/30 13:20:51;;;;;;;;;;;14.00;90.60;;;;;;5017346;28;19966;-78
2021/10/30 13:23:16;;;;;;;;;;;14.10;90.60;;;;;;5038438;28;19916;-77
2021/10/30 13:25:42;;;;;;;;;;;14.10;90.60;;;;;;5039786;28;20058;-78
2021/10/30 13:28:07;;;;;;;;;;;14.10;90.50;;;;;;5038506;28;19913;-80
2021/10/30 13:30:34;;;;;;;;;;;14.20;90.50;;;;;;5037417;28;19917;-77
2021/10/30 13:32:59;;;;;;;;;;;14.20;90.50;;;;;;5019978;28;19916;-78
2021/10/30 13:35:24;;;;;;;;;;;14.20;90.60;;;;;;5033672;28;20292;-80
2021/10/30 13:37:50;;;;;;;;;;;14.10;90.50;;;;;;5042500;28;20007;-80
2021/10/30 13:40:15;;;;;;;;;;;14.20;90.60;;;;;;5039505;28;20486;-80
2021/10/30 13:42:41;;;;;;;;;;;14.10;90.60;;;;;;5038979;28;19924;-81
2021/10/30 13:45:07;;;;;;;;;;;14.00;90.40;;;;;;5021099;28;19912;-80
2021/10/30 13:47:32;;;;;;;;;;;14.00;90.60;;;;;;5035121;28;19936;-80
2021/10/30 13:49:58;;;;;;;;;;;13.90;90.70;;;;;;5017682;28;20005;-80
2021/10/30 13:52:23;;;;;;;;;;;13.90;90.60;;;;;;5019614;28;19917;-79
2021/10/30 13:54:49;;;;;;;;;;;13.90;90.70;;;;;;5039465;28;19913;-78
2021/10/30 13:57:14;;;;;;;;;;;13.90;90.80;;;;;;5035898;28;20012;-78
2021/10/30 13:59:39;;;;;;;;;;;13.90;90.90;;;;;;5019521;28;19974;-74
2021/10/30 14:02:07;;;;;;;;;;;13.90;90.90;;;;;;5035005;28;19913;-72
2021/10/30 14:04:33;;;;;;;;;;;13.90;90.90;;;;;;5036005;28;19972;-73
2021/10/30 14:06:59;;;;;;;;;;;13.90;91.00;;;;;;5034354;28;19921;-73
2021/10/30 14:09:24;;;;;;;;;;;13.90;91.00;;;;;;5035920;28;20342;-66
2021/10/30 14:11:50;;;;;;;;;;;13.90;91.40;;;;;;5033655;28;20336;-66
2021/10/30 14:14:15;;;;;;;;;;;14.20;91.90;;;;;;5036428;28;20277;-65
2021/10/30 14:16:40;;;;;;;;;;;14.40;91.80;;;;;;5031565;28;20412;-78
2021/10/30 14:19:06;;;;;;;;;;;14.40;91.10;;;;;;5019129;28;19925;-81